Krebs, OK (74554)

1:33 AM CDT on August 22, 2014 (GMT -0500)
Kinkead Hills | Change Station
CLOSE
Current Station
Personal Weather Station
Location: McAlester, OK
Elevation: 808 ft
Nearby Weather Stations

Elev 808 ft 34.90 °N, 95.73 °W | Updated 7 minutes ago

Clear
Clear
81.5 °F
Feels Like 86 °F
N
0.0
Wind Variable Wind from SSE

Today
High -- | Low -- °F
--% Chance of Precip.
Yesterday
High -- | Low -- °F
Precip. -- in
6:48 AM 8:02 PM
Waning Crescent, 10% visible
Pressure 29.95 in
Visibility 10.0 miles
Clouds Clear
Heat Index 86 °F
Dew Point 71 °F
Humidity 71%
Rainfall 0.00 in
Snow Depth Not available.
UV 0 out of 12
Pollen 9.50 out of 12
Air Quality Not available.
Flu Activity Not available.
METAR KMLC 220553Z AUTO 17009G15KT 10SM CLR 29/21 A2999 RMK AO2 SLP142 T02890206 10322 20289 403390244 58002

More Conditions Fewer Conditions

Pressure 29.95 in
Visibility 10.0 miles
Clouds Clear
Heat Index 86 °F
Dew Point 71 °F
Humidity 71%
Rainfall 0.00 in
Snow Depth Not available.
UV 0 out of 12
Pollen 9.50 out of 12
Air Quality Not available.
Flu Activity Not available.
METAR KMLC 220553Z AUTO 17009G15KT 10SM CLR 29/21 A2999 RMK AO2 SLP142 T02890206 10322 20289 403390244 58002

More Conditions Fewer Conditions

10-Day Weather Forecast

Almanac

Astronomy

Aug. 22, 2014 Rise Set
Actual Time 6:48 AM CDT 8:02 PM CDT
Civil Twilight 6:21 AM CDT 8:28 PM CDT
Nautical Twilight 5:50 AM CDT 9:00 PM CDT
Astronomical Twilight 5:17 AM CDT 9:32 PM CDT
Moon 4:14 AM CDT 6:09 PM CDT
Length of Visible Light 14h 06m
Length of Day
13h 14m
Tomorrow will be 2m 1s shorter.
Waning Crescent, 10% of the Moon is Illuminated
Today
Waning Crescent
Aug 25
New
Sep 2
First Quarter
Sep 8
Full
Sep 15
Last Quarter

Today's Extremes

State Highs State Lows

Community

WunderPhotos

Upload Photos

1,746,131 photos uploaded!

Nearby

Snow Depth

Station Depth Elevation
No new snow has been reported.

Earthquake Activity

City Distance Mag. Time & Date
Perry, Oklahoma 126 miles 3.0 8:43 AM CDT
2014-08-17
Minimum magnitude displayed is 2.5.

Coastal Water Temperatures

Place Temperature
No Stations Reporting

Nearby Weather Stations